sensor_id;sensor_type;location;lat;lon;timestamp;temperature;humidity
13856;DHT22;6998;53.608;9.958;2022-12-24T00:00:56;5.40;99.90
13856;DHT22;6998;53.608;9.958;2022-12-24T00:03:23;5.40;99.90
13856;DHT22;6998;53.608;9.958;2022-12-24T00:05:49;5.40;99.90
13856;DHT22;6998;53.608;9.958;2022-12-24T00:08:16;5.30;99.90
13856;DHT22;6998;53.608;9.958;2022-12-24T00:10:43;5.40;99.90
13856;DHT22;6998;53.608;9.958;2022-12-24T00:13:10;5.40;99.90
13856;DHT22;6998;53.608;9.958;2022-12-24T00:15:36;5.40;99.90
13856;DHT22;6998;53.608;9.958;2022-12-24T00:18:04;5.40;99.90
13856;DHT22;6998;53.608;9.958;2022-12-24T00:20:31;5.50;99.90
13856;DHT22;6998;53.608;9.958;2022-12-24T00:22:58;5.40;99.90
13856;DHT22;6998;53.608;9.958;2022-12-24T00:25:25;5.40;99.90
13856;DHT22;6998;53.608;9.958;2022-12-24T00:27:51;5.30;99.90
13856;DHT22;6998;53.608;9.958;2022-12-24T00:30:18;5.30;99.90
13856;DHT22;6998;53.608;9.958;2022-12-24T00:32:45;5.30;99.90
13856;DHT22;6998;53.608;9.958;2022-12-24T00:35:13;5.30;99.90
13856;DHT22;6998;53.608;9.958;2022-12-24T00:37:39;5.30;99.90
13856;DHT22;6998;53.608;9.958;2022-12-24T00:40:07;5.30;99.90
13856;DHT22;6998;53.608;9.958;2022-12-24T00:42:34;5.30;99.90
13856;DHT22;6998;53.608;9.958;2022-12-24T00:45:01;5.40;99.90
13856;DHT22;6998;53.608;9.958;2022-12-24T00:47:27;5.30;99.90
13856;DHT22;6998;53.608;9.958;2022-12-24T00:49:54;5.30;99.90
13856;DHT22;6998;53.608;9.958;2022-12-24T00:52:22;5.30;99.90
13856;DHT22;6998;53.608;9.958;2022-12-24T00:54:49;5.40;99.90
13856;DHT22;6998;53.608;9.958;2022-12-24T00:57:15;5.40;99.90
13856;DHT22;6998;53.608;9.958;2022-12-24T00:59:42;5.40;99.90
13856;DHT22;6998;53.608;9.958;2022-12-24T01:02:09;5.40;99.90
13856;DHT22;6998;53.608;9.958;2022-12-24T01:04:36;5.30;99.90
13856;DHT22;6998;53.608;9.958;2022-12-24T01:07:21;5.40;99.90
13856;DHT22;6998;53.608;9.958;2022-12-24T01:09:48;5.30;99.90
13856;DHT22;6998;53.608;9.958;2022-12-24T01:12:15;5.30;99.90
13856;DHT22;6998;53.608;9.958;2022-12-24T01:14:41;5.40;99.90
13856;DHT22;6998;53.608;9.958;2022-12-24T01:17:08;5.30;99.90
13856;DHT22;6998;53.608;9.958;2022-12-24T01:19:35;5.40;99.90
13856;DHT22;6998;53.608;9.958;2022-12-24T01:22:02;5.40;99.90
13856;DHT22;6998;53.608;9.958;2022-12-24T01:24:30;5.40;99.90
13856;DHT22;6998;53.608;9.958;2022-12-24T01:26:56;5.40;99.90
13856;DHT22;6998;53.608;9.958;2022-12-24T01:29:23;5.40;99.90
13856;DHT22;6998;53.608;9.958;2022-12-24T01:31:50;5.40;99.90
13856;DHT22;6998;53.608;9.958;2022-12-24T01:34:17;5.40;99.90
13856;DHT22;6998;53.608;9.958;2022-12-24T01:36:43;5.30;99.90
13856;DHT22;6998;53.608;9.958;2022-12-24T01:39:10;5.30;99.90
13856;DHT22;6998;53.608;9.958;2022-12-24T01:41:38;5.40;99.90
13856;DHT22;6998;53.608;9.958;2022-12-24T01:44:24;5.40;99.90
13856;DHT22;6998;53.608;9.958;2022-12-24T01:46:53;5.40;99.90
13856;DHT22;6998;53.608;9.958;2022-12-24T01:49:22;5.40;99.90
13856;DHT22;6998;53.608;9.958;2022-12-24T01:51:53;5.40;99.90
13856;DHT22;6998;53.608;9.958;2022-12-24T01:54:24;5.40;99.90
13856;DHT22;6998;53.608;9.958;2022-12-24T01:56:58;5.40;99.90
13856;DHT22;6998;53.608;9.958;2022-12-24T01:59:25;5.40;99.90
13856;DHT22;6998;53.608;9.958;2022-12-24T02:01:52;5.30;99.90
13856;DHT22;6998;53.608;9.958;2022-12-24T02:04:27;5.40;99.90
13856;DHT22;6998;53.608;9.958;2022-12-24T02:06:54;5.30;99.90
13856;DHT22;6998;53.608;9.958;2022-12-24T02:09:21;5.40;99.90
13856;DHT22;6998;53.608;9.958;2022-12-24T02:11:47;5.40;99.90
13856;DHT22;6998;53.608;9.958;2022-12-24T02:14:16;5.40;99.90
13856;DHT22;6998;53.608;9.958;2022-12-24T02:16:46;5.40;99.90
13856;DHT22;6998;53.608;9.958;2022-12-24T02:19:44;5.40;99.90
13856;DHT22;6998;53.608;9.958;2022-12-24T02:22:16;5.40;99.90
13856;DHT22;6998;53.608;9.958;2022-12-24T02:25:15;5.40;99.90
13856;DHT22;6998;53.608;9.958;2022-12-24T02:27:54;5.40;99.90
13856;DHT22;6998;53.608;9.958;2022-12-24T02:30:29;5.30;99.90
13856;DHT22;6998;53.608;9.958;2022-12-24T02:33:04;5.30;99.90
13856;DHT22;6998;53.608;9.958;2022-12-24T02:35:38;5.30;99.90
13856;DHT22;6998;53.608;9.958;2022-12-24T02:38:13;5.30;99.90
13856;DHT22;6998;53.608;9.958;2022-12-24T02:40:46;5.30;99.90
13856;DHT22;6998;53.608;9.958;2022-12-24T02:43:18;5.30;99.90
13856;DHT22;6998;53.608;9.958;2022-12-24T02:45:52;5.30;99.90
13856;DHT22;6998;53.608;9.958;2022-12-24T02:48:19;5.40;99.90
13856;DHT22;6998;53.608;9.958;2022-12-24T02:50:56;5.40;99.90
13856;DHT22;6998;53.608;9.958;2022-12-24T02:53:22;5.40;99.90
13856;DHT22;6998;53.608;9.958;2022-12-24T02:56:00;5.40;99.90
13856;DHT22;6998;53.608;9.958;2022-12-24T02:58:38;5.30;99.90
13856;DHT22;6998;53.608;9.958;2022-12-24T03:01:15;5.30;99.90
13856;DHT22;6998;53.608;9.958;2022-12-24T03:03:57;5.40;99.90
13856;DHT22;6998;53.608;9.958;2022-12-24T03:06:32;5.40;99.90
13856;DHT22;6998;53.608;9.958;2022-12-24T03:09:06;5.40;99.90
13856;DHT22;6998;53.608;9.958;2022-12-24T03:11:35;5.40;99.90
13856;DHT22;6998;53.608;9.958;2022-12-24T03:14:04;5.40;99.90
13856;DHT22;6998;53.608;9.958;2022-12-24T03:16:32;5.40;99.90
13856;DHT22;6998;53.608;9.958;2022-12-24T03:19:00;5.40;99.90
13856;DHT22;6998;53.608;9.958;2022-12-24T03:21:28;5.40;99.90
13856;DHT22;6998;53.608;9.958;2022-12-24T03:23:56;5.40;99.90
13856;DHT22;6998;53.608;9.958;2022-12-24T03:26:24;5.40;99.90
13856;DHT22;6998;53.608;9.958;2022-12-24T03:28:52;5.30;99.90
13856;DHT22;6998;53.608;9.958;2022-12-24T03:31:19;5.30;99.90
13856;DHT22;6998;53.608;9.958;2022-12-24T03:33:48;5.30;99.90
13856;DHT22;6998;53.608;9.958;2022-12-24T03:36:15;5.40;99.90
13856;DHT22;6998;53.608;9.958;2022-12-24T03:38:42;5.30;99.90
13856;DHT22;6998;53.608;9.958;2022-12-24T03:41:08;5.30;99.90
13856;DHT22;6998;53.608;9.958;2022-12-24T03:43:35;5.30;99.90
13856;DHT22;6998;53.608;9.958;2022-12-24T03:46:04;5.20;99.90
13856;DHT22;6998;53.608;9.958;2022-12-24T03:48:33;5.20;99.90
13856;DHT22;6998;53.608;9.958;2022-12-24T03:51:02;5.30;99.90
13856;DHT22;6998;53.608;9.958;2022-12-24T03:53:29;5.30;99.90
13856;DHT22;6998;53.608;9.958;2022-12-24T03:55:56;5.20;99.90
13856;DHT22;6998;53.608;9.958;2022-12-24T03:58:23;5.10;99.90
13856;DHT22;6998;53.608;9.958;2022-12-24T04:00:51;5.10;99.90
13856;DHT22;6998;53.608;9.958;2022-12-24T04:03:19;5.10;99.90
13856;DHT22;6998;53.608;9.958;2022-12-24T04:05:46;5.10;99.90
13856;DHT22;6998;53.608;9.958;2022-12-24T04:08:14;5.10;99.90
13856;DHT22;6998;53.608;9.958;2022-12-24T04:10:41;5.20;99.90
13856;DHT22;6998;53.608;9.958;2022-12-24T04:13:07;5.20;99.90
13856;DHT22;6998;53.608;9.958;2022-12-24T04:15:34;5.20;99.90
13856;DHT22;6998;53.608;9.958;2022-12-24T04:18:01;5.10;99.90
13856;DHT22;6998;53.608;9.958;2022-12-24T04:20:27;5.20;99.90
13856;DHT22;6998;53.608;9.958;2022-12-24T04:22:54;5.20;99.90
13856;DHT22;6998;53.608;9.958;2022-12-24T04:25:22;5.20;99.90
13856;DHT22;6998;53.608;9.958;2022-12-24T04:27:49;5.20;99.90
13856;DHT22;6998;53.608;9.958;2022-12-24T04:30:15;5.30;99.90
13856;DHT22;6998;53.608;9.958;2022-12-24T04:32:42;5.20;99.90
13856;DHT22;6998;53.608;9.958;2022-12-24T04:35:09;5.30;99.90
13856;DHT22;6998;53.608;9.958;2022-12-24T04:37:35;5.20;99.90
13856;DHT22;6998;53.608;9.958;2022-12-24T04:40:03;5.30;99.90
13856;DHT22;6998;53.608;9.958;2022-12-24T04:42:31;5.30;99.90
13856;DHT22;6998;53.608;9.958;2022-12-24T04:44:57;5.30;99.90
13856;DHT22;6998;53.608;9.958;2022-12-24T04:47:24;5.20;99.90
13856;DHT22;6998;53.608;9.958;2022-12-24T04:49:51;5.30;99.90
13856;DHT22;6998;53.608;9.958;2022-12-24T04:52:17;5.30;99.90
13856;DHT22;6998;53.608;9.958;2022-12-24T04:54:44;5.20;99.90
13856;DHT22;6998;53.608;9.958;2022-12-24T04:57:11;5.20;99.90
13856;DHT22;6998;53.608;9.958;2022-12-24T04:59:39;5.10;99.90
13856;DHT22;6998;53.608;9.958;2022-12-24T05:02:06;5.20;99.90
13856;DHT22;6998;53.608;9.958;2022-12-24T05:04:32;5.20;99.90
13856;DHT22;6998;53.608;9.958;2022-12-24T05:06:59;5.20;99.90
13856;DHT22;6998;53.608;9.958;2022-12-24T05:09:26;5.20;99.90
13856;DHT22;6998;53.608;9.958;2022-12-24T05:11:52;5.20;99.90
13856;DHT22;6998;53.608;9.958;2022-12-24T05:14:19;5.30;99.90
13856;DHT22;6998;53.608;9.958;2022-12-24T05:16:47;5.20;99.90
13856;DHT22;6998;53.608;9.958;2022-12-24T05:19:14;5.20;99.90
13856;DHT22;6998;53.608;9.958;2022-12-24T05:21:41;5.20;99.90
13856;DHT22;6998;53.608;9.958;2022-12-24T05:24:09;5.20;99.90
13856;DHT22;6998;53.608;9.958;2022-12-24T05:27:02;5.20;99.90
13856;DHT22;6998;53.608;9.958;2022-12-24T05:29:29;5.30;99.90
13856;DHT22;6998;53.608;9.958;2022-12-24T05:31:57;5.30;99.90
13856;DHT22;6998;53.608;9.958;2022-12-24T05:34:24;5.30;99.90
13856;DHT22;6998;53.608;9.958;2022-12-24T05:36:51;5.20;99.90
13856;DHT22;6998;53.608;9.958;2022-12-24T05:39:17;5.20;99.90
13856;DHT22;6998;53.608;9.958;2022-12-24T05:41:45;5.30;99.90
13856;DHT22;6998;53.608;9.958;2022-12-24T05:44:12;5.20;99.90
13856;DHT22;6998;53.608;9.958;2022-12-24T05:46:39;5.20;99.90
13856;DHT22;6998;53.608;9.958;2022-12-24T05:49:07;5.20;99.90
13856;DHT22;6998;53.608;9.958;2022-12-24T05:51:34;5.20;99.90
13856;DHT22;6998;53.608;9.958;2022-12-24T05:54:01;5.20;99.90
13856;DHT22;6998;53.608;9.958;2022-12-24T05:56:27;5.30;99.90
13856;DHT22;6998;53.608;9.958;2022-12-24T05:58:54;5.30;99.90
13856;DHT22;6998;53.608;9.958;2022-12-24T06:01:22;5.20;99.90
13856;DHT22;6998;53.608;9.958;2022-12-24T06:03:50;5.30;99.90
13856;DHT22;6998;53.608;9.958;2022-12-24T06:06:20;5.20;99.90
13856;DHT22;6998;53.608;9.958;2022-12-24T06:08:48;5.20;99.90
13856;DHT22;6998;53.608;9.958;2022-12-24T06:11:17;5.30;99.90
13856;DHT22;6998;53.608;9.958;2022-12-24T06:13:44;5.30;99.90
13856;DHT22;6998;53.608;9.958;2022-12-24T06:16:13;5.20;99.90
13856;DHT22;6998;53.608;9.958;2022-12-24T06:18:40;5.30;99.90
13856;DHT22;6998;53.608;9.958;2022-12-24T06:21:08;5.20;99.90
13856;DHT22;6998;53.608;9.958;2022-12-24T06:23:38;5.30;99.90
13856;DHT22;6998;53.608;9.958;2022-12-24T06:26:07;5.30;99.90
13856;DHT22;6998;53.608;9.958;2022-12-24T06:28:36;5.30;99.90
13856;DHT22;6998;53.608;9.958;2022-12-24T06:31:05;5.30;99.90
13856;DHT22;6998;53.608;9.958;2022-12-24T06:33:32;5.30;99.90
13856;DHT22;6998;53.608;9.958;2022-12-24T06:35:59;5.30;99.90
13856;DHT22;6998;53.608;9.958;2022-12-24T06:38:28;5.20;99.90
13856;DHT22;6998;53.608;9.958;2022-12-24T06:40:56;5.30;99.90
13856;DHT22;6998;53.608;9.958;2022-12-24T06:43:23;5.30;99.90
13856;DHT22;6998;53.608;9.958;2022-12-24T06:45:49;5.30;99.90
13856;DHT22;6998;53.608;9.958;2022-12-24T06:48:16;5.30;99.90
13856;DHT22;6998;53.608;9.958;2022-12-24T06:50:43;5.30;99.90
13856;DHT22;6998;53.608;9.958;2022-12-24T06:53:10;5.20;99.90
13856;DHT22;6998;53.608;9.958;2022-12-24T06:55:36;5.20;99.90
13856;DHT22;6998;53.608;9.958;2022-12-24T06:58:04;5.20;99.90
13856;DHT22;6998;53.608;9.958;2022-12-24T07:00:31;5.20;99.90
13856;DHT22;6998;53.608;9.958;2022-12-24T07:02:58;5.30;99.90
13856;DHT22;6998;53.608;9.958;2022-12-24T07:05:24;5.30;99.90
13856;DHT22;6998;53.608;9.958;2022-12-24T07:07:51;5.30;99.90
13856;DHT22;6998;53.608;9.958;2022-12-24T07:10:19;5.30;99.90
13856;DHT22;6998;53.608;9.958;2022-12-24T07:12:46;5.30;99.90
13856;DHT22;6998;53.608;9.958;2022-12-24T07:15:15;5.30;99.90
13856;DHT22;6998;53.608;9.958;2022-12-24T07:17:42;5.30;99.90
13856;DHT22;6998;53.608;9.958;2022-12-24T07:20:11;5.30;99.90
13856;DHT22;6998;53.608;9.958;2022-12-24T07:22:39;5.30;99.90
13856;DHT22;6998;53.608;9.958;2022-12-24T07:25:06;5.30;99.90
13856;DHT22;6998;53.608;9.958;2022-12-24T07:27:35;5.30;99.90
13856;DHT22;6998;53.608;9.958;2022-12-24T07:30:04;5.30;99.90
13856;DHT22;6998;53.608;9.958;2022-12-24T07:32:33;5.30;99.90
13856;DHT22;6998;53.608;9.958;2022-12-24T07:34:59;5.30;99.90
13856;DHT22;6998;53.608;9.958;2022-12-24T07:37:26;5.30;99.90
13856;DHT22;6998;53.608;9.958;2022-12-24T07:39:53;5.30;99.90
13856;DHT22;6998;53.608;9.958;2022-12-24T07:42:20;5.30;99.90
13856;DHT22;6998;53.608;9.958;2022-12-24T07:44:47;5.30;99.90
13856;DHT22;6998;53.608;9.958;2022-12-24T07:47:14;5.20;99.90
13856;DHT22;6998;53.608;9.958;2022-12-24T07:49:43;5.20;99.90
13856;DHT22;6998;53.608;9.958;2022-12-24T07:52:09;5.30;99.90
13856;DHT22;6998;53.608;9.958;2022-12-24T07:54:36;5.30;99.90
13856;DHT22;6998;53.608;9.958;2022-12-24T07:57:03;5.20;99.90
13856;DHT22;6998;53.608;9.958;2022-12-24T07:59:30;5.20;99.90
13856;DHT22;6998;53.608;9.958;2022-12-24T08:01:57;5.30;99.90
13856;DHT22;6998;53.608;9.958;2022-12-24T08:04:23;5.40;99.90
13856;DHT22;6998;53.608;9.958;2022-12-24T08:06:52;5.30;99.90
13856;DHT22;6998;53.608;9.958;2022-12-24T08:09:18;5.40;99.90
13856;DHT22;6998;53.608;9.958;2022-12-24T08:11:45;5.30;99.90
13856;DHT22;6998;53.608;9.958;2022-12-24T08:14:12;5.40;99.90
13856;DHT22;6998;53.608;9.958;2022-12-24T08:16:38;5.40;99.90
13856;DHT22;6998;53.608;9.958;2022-12-24T08:19:05;5.40;99.90
13856;DHT22;6998;53.608;9.958;2022-12-24T08:21:32;5.40;99.90
13856;DHT22;6998;53.608;9.958;2022-12-24T08:24:00;5.40;99.90
13856;DHT22;6998;53.608;9.958;2022-12-24T08:26:26;5.40;99.90
13856;DHT22;6998;53.608;9.958;2022-12-24T08:28:53;5.40;99.90
13856;DHT22;6998;53.608;9.958;2022-12-24T08:31:20;5.50;99.90
13856;DHT22;6998;53.608;9.958;2022-12-24T08:33:46;5.50;99.90
13856;DHT22;6998;53.608;9.958;2022-12-24T08:36:13;5.40;99.90
13856;DHT22;6998;53.608;9.958;2022-12-24T08:38:42;5.50;99.90
13856;DHT22;6998;53.608;9.958;2022-12-24T08:41:10;5.50;99.90
13856;DHT22;6998;53.608;9.958;2022-12-24T08:43:37;5.50;99.90
13856;DHT22;6998;53.608;9.958;2022-12-24T08:46:04;5.50;99.90
13856;DHT22;6998;53.608;9.958;2022-12-24T08:48:32;5.50;99.90
13856;DHT22;6998;53.608;9.958;2022-12-24T08:50:59;5.50;99.90
13856;DHT22;6998;53.608;9.958;2022-12-24T08:53:26;5.40;99.90
13856;DHT22;6998;53.608;9.958;2022-12-24T08:56:00;5.50;99.90
13856;DHT22;6998;53.608;9.958;2022-12-24T08:58:28;5.50;99.90
13856;DHT22;6998;53.608;9.958;2022-12-24T09:00:55;5.50;99.90
13856;DHT22;6998;53.608;9.958;2022-12-24T09:03:22;5.60;99.90
13856;DHT22;6998;53.608;9.958;2022-12-24T09:05:49;5.60;99.90
13856;DHT22;6998;53.608;9.958;2022-12-24T09:08:15;5.60;99.90
13856;DHT22;6998;53.608;9.958;2022-12-24T09:10:42;5.60;99.90
13856;DHT22;6998;53.608;9.958;2022-12-24T09:13:09;5.60;99.90
13856;DHT22;6998;53.608;9.958;2022-12-24T09:15:37;5.60;99.90
13856;DHT22;6998;53.608;9.958;2022-12-24T09:18:04;5.60;99.90
13856;DHT22;6998;53.608;9.958;2022-12-24T09:20:31;5.50;99.90
13856;DHT22;6998;53.608;9.958;2022-12-24T09:22:58;5.60;99.90
13856;DHT22;6998;53.608;9.958;2022-12-24T09:25:25;5.50;99.90
13856;DHT22;6998;53.608;9.958;2022-12-24T09:27:51;5.60;99.90
13856;DHT22;6998;53.608;9.958;2022-12-24T09:30:18;5.50;99.90
13856;DHT22;6998;53.608;9.958;2022-12-24T09:32:49;5.60;99.90
13856;DHT22;6998;53.608;9.958;2022-12-24T09:35:16;5.60;99.90
13856;DHT22;6998;53.608;9.958;2022-12-24T09:37:43;5.60;99.90
13856;DHT22;6998;53.608;9.958;2022-12-24T09:40:24;5.70;99.90
13856;DHT22;6998;53.608;9.958;2022-12-24T09:42:54;5.70;99.90
13856;DHT22;6998;53.608;9.958;2022-12-24T09:45:25;5.70;99.90
13856;DHT22;6998;53.608;9.958;2022-12-24T09:47:58;5.70;99.90
13856;DHT22;6998;53.608;9.958;2022-12-24T09:50:33;5.70;99.90
13856;DHT22;6998;53.608;9.958;2022-12-24T09:53:12;5.70;99.90
13856;DHT22;6998;53.608;9.958;2022-12-24T09:55:43;5.80;99.90
13856;DHT22;6998;53.608;9.958;2022-12-24T09:58:18;5.80;99.90
13856;DHT22;6998;53.608;9.958;2022-12-24T10:00:47;5.90;99.90
13856;DHT22;6998;53.608;9.958;2022-12-24T10:03:15;5.90;99.90
13856;DHT22;6998;53.608;9.958;2022-12-24T10:05:46;5.90;99.90
13856;DHT22;6998;53.608;9.958;2022-12-24T10:08:20;6.00;99.90
13856;DHT22;6998;53.608;9.958;2022-12-24T10:10:51;6.00;99.90
13856;DHT22;6998;53.608;9.958;2022-12-24T10:13:28;6.10;99.90
13856;DHT22;6998;53.608;9.958;2022-12-24T10:16:02;6.20;99.90
13856;DHT22;6998;53.608;9.958;2022-12-24T10:18:37;6.20;99.90
13856;DHT22;6998;53.608;9.958;2022-12-24T10:21:12;6.30;99.90
13856;DHT22;6998;53.608;9.958;2022-12-24T10:23:45;6.30;99.90
13856;DHT22;6998;53.608;9.958;2022-12-24T10:26:19;6.20;99.90
13856;DHT22;6998;53.608;9.958;2022-12-24T10:28:52;6.20;99.90
13856;DHT22;6998;53.608;9.958;2022-12-24T10:31:25;6.20;99.90
13856;DHT22;6998;53.608;9.958;2022-12-24T10:33:55;6.20;99.90
13856;DHT22;6998;53.608;9.958;2022-12-24T10:36:26;6.20;99.90
13856;DHT22;6998;53.608;9.958;2022-12-24T10:38:54;6.20;99.90
13856;DHT22;6998;53.608;9.958;2022-12-24T10:41:21;6.30;99.90
13856;DHT22;6998;53.608;9.958;2022-12-24T10:43:48;6.30;99.90
13856;DHT22;6998;53.608;9.958;2022-12-24T10:46:18;6.40;99.90
13856;DHT22;6998;53.608;9.958;2022-12-24T10:48:51;6.40;99.90
13856;DHT22;6998;53.608;9.958;2022-12-24T10:51:25;6.50;99.90
13856;DHT22;6998;53.608;9.958;2022-12-24T10:53:59;6.40;99.90
13856;DHT22;6998;53.608;9.958;2022-12-24T10:56:27;6.40;99.90
13856;DHT22;6998;53.608;9.958;2022-12-24T10:58:54;6.30;99.90
13856;DHT22;6998;53.608;9.958;2022-12-24T11:01:42;6.30;99.90
13856;DHT22;6998;53.608;9.958;2022-12-24T11:04:15;6.40;99.90
13856;DHT22;6998;53.608;9.958;2022-12-24T11:06:51;6.40;99.90
13856;DHT22;6998;53.608;9.958;2022-12-24T11:09:20;6.40;99.90
13856;DHT22;6998;53.608;9.958;2022-12-24T11:11:48;6.50;99.90
13856;DHT22;6998;53.608;9.958;2022-12-24T11:14:16;6.50;99.90
13856;DHT22;6998;53.608;9.958;2022-12-24T11:16:49;6.50;99.90
13856;DHT22;6998;53.608;9.958;2022-12-24T11:19:18;6.60;99.90
13856;DHT22;6998;53.608;9.958;2022-12-24T11:21:46;6.70;99.90
13856;DHT22;6998;53.608;9.958;2022-12-24T11:24:25;6.70;99.90
13856;DHT22;6998;53.608;9.958;2022-12-24T11:26:53;6.70;99.90
13856;DHT22;6998;53.608;9.958;2022-12-24T11:29:27;6.70;99.90
13856;DHT22;6998;53.608;9.958;2022-12-24T11:32:14;6.80;99.90
13856;DHT22;6998;53.608;9.958;2022-12-24T11:34:42;6.60;99.90
13856;DHT22;6998;53.608;9.958;2022-12-24T11:37:16;6.80;99.90
13856;DHT22;6998;53.608;9.958;2022-12-24T11:39:46;6.80;99.90
13856;DHT22;6998;53.608;9.958;2022-12-24T11:42:26;6.90;99.90
13856;DHT22;6998;53.608;9.958;2022-12-24T11:44:54;6.90;99.90
13856;DHT22;6998;53.608;9.958;2022-12-24T11:47:31;6.90;99.90
13856;DHT22;6998;53.608;9.958;2022-12-24T11:50:19;6.90;99.90
13856;DHT22;6998;53.608;9.958;2022-12-24T11:52:49;6.90;99.90
13856;DHT22;6998;53.608;9.958;2022-12-24T11:55:32;6.90;99.90
13856;DHT22;6998;53.608;9.958;2022-12-24T11:58:04;6.90;99.90
13856;DHT22;6998;53.608;9.958;2022-12-24T12:00:32;6.90;99.90
13856;DHT22;6998;53.608;9.958;2022-12-24T12:03:00;6.90;99.90
13856;DHT22;6998;53.608;9.958;2022-12-24T12:05:31;7.00;99.90
13856;DHT22;6998;53.608;9.958;2022-12-24T12:08:06;7.00;99.90
13856;DHT22;6998;53.608;9.958;2022-12-24T12:10:38;7.10;99.90
13856;DHT22;6998;53.608;9.958;2022-12-24T12:13:10;7.10;99.90
13856;DHT22;6998;53.608;9.958;2022-12-24T12:15:39;7.10;99.90
13856;DHT22;6998;53.608;9.958;2022-12-24T12:18:10;7.00;99.90
13856;DHT22;6998;53.608;9.958;2022-12-24T12:20:41;7.00;99.90
13856;DHT22;6998;53.608;9.958;2022-12-24T12:23:13;7.00;99.90
13856;DHT22;6998;53.608;9.958;2022-12-24T12:25:45;7.10;99.90
13856;DHT22;6998;53.608;9.958;2022-12-24T12:28:19;7.10;99.90
13856;DHT22;6998;53.608;9.958;2022-12-24T12:30:54;7.20;99.90
13856;DHT22;6998;53.608;9.958;2022-12-24T12:33:27;7.40;99.90
13856;DHT22;6998;53.608;9.958;2022-12-24T12:35:59;7.40;99.90
13856;DHT22;6998;53.608;9.958;2022-12-24T12:38:28;7.50;99.90
13856;DHT22;6998;53.608;9.958;2022-12-24T12:41:17;7.60;99.90
13856;DHT22;6998;53.608;9.958;2022-12-24T12:44:02;7.60;99.90
13856;DHT22;6998;53.608;9.958;2022-12-24T12:46:43;7.50;99.90
13856;DHT22;6998;53.608;9.958;2022-12-24T12:49:24;7.60;99.90
13856;DHT22;6998;53.608;9.958;2022-12-24T12:51:59;7.60;99.90
13856;DHT22;6998;53.608;9.958;2022-12-24T12:54:38;7.70;99.90
13856;DHT22;6998;53.608;9.958;2022-12-24T12:57:11;7.70;99.90
13856;DHT22;6998;53.608;9.958;2022-12-24T12:59:41;7.70;99.90
13856;DHT22;6998;53.608;9.958;2022-12-24T13:02:22;7.70;99.90
13856;DHT22;6998;53.608;9.958;2022-12-24T13:05:16;7.70;99.90
13856;DHT22;6998;53.608;9.958;2022-12-24T13:08:20;7.70;99.90
13856;DHT22;6998;53.608;9.958;2022-12-24T13:11:09;7.80;99.90
13856;DHT22;6998;53.608;9.958;2022-12-24T13:13:54;7.90;99.90
13856;DHT22;6998;53.608;9.958;2022-12-24T13:16:44;8.00;99.90
13856;DHT22;6998;53.608;9.958;2022-12-24T13:19:23;8.10;99.90
13856;DHT22;6998;53.608;9.958;2022-12-24T13:21:54;8.20;99.90
13856;DHT22;6998;53.608;9.958;2022-12-24T13:24:23;8.20;99.90
13856;DHT22;6998;53.608;9.958;2022-12-24T13:27:03;8.20;99.90
13856;DHT22;6998;53.608;9.958;2022-12-24T13:29:41;8.30;99.90
13856;DHT22;6998;53.608;9.958;2022-12-24T13:32:46;8.30;99.90
13856;DHT22;6998;53.608;9.958;2022-12-24T13:35:31;8.30;99.90
13856;DHT22;6998;53.608;9.958;2022-12-24T13:38:30;8.30;99.90
13856;DHT22;6998;53.608;9.958;2022-12-24T13:41:48;8.20;99.90
13856;DHT22;6998;53.608;9.958;2022-12-24T13:44:20;8.20;99.90
13856;DHT22;6998;53.608;9.958;2022-12-24T13:46:58;8.10;99.90
13856;DHT22;6998;53.608;9.958;2022-12-24T13:49:31;8.10;99.90
13856;DHT22;6998;53.608;9.958;2022-12-24T13:52:15;8.10;99.90
13856;DHT22;6998;53.608;9.958;2022-12-24T13:54:46;8.10;99.90
13856;DHT22;6998;53.608;9.958;2022-12-24T13:57:32;8.20;99.90
13856;DHT22;6998;53.608;9.958;2022-12-24T14:00:01;8.20;99.90
13856;DHT22;6998;53.608;9.958;2022-12-24T14:02:33;8.20;99.90
13856;DHT22;6998;53.608;9.958;2022-12-24T14:05:03;8.30;99.90
13856;DHT22;6998;53.608;9.958;2022-12-24T14:07:33;8.40;99.90
13856;DHT22;6998;53.608;9.958;2022-12-24T14:10:01;8.40;99.90
13856;DHT22;6998;53.608;9.958;2022-12-24T14:12:48;8.40;99.90
13856;DHT22;6998;53.608;9.958;2022-12-24T14:18:32;8.40;99.90
13856;DHT22;6998;53.608;9.958;2022-12-24T14:21:01;8.40;99.90
13856;DHT22;6998;53.608;9.958;2022-12-24T14:23:43;8.40;99.90
13856;DHT22;6998;53.608;9.958;2022-12-24T14:26:15;8.40;99.90
13856;DHT22;6998;53.608;9.958;2022-12-24T14:28:46;8.30;99.90
13856;DHT22;6998;53.608;9.958;2022-12-24T14:31:16;8.30;99.90
13856;DHT22;6998;53.608;9.958;2022-12-24T14:33:43;8.30;99.90
13856;DHT22;6998;53.608;9.958;2022-12-24T14:36:10;8.30;99.90
13856;DHT22;6998;53.608;9.958;2022-12-24T14:38:40;8.30;99.90
13856;DHT22;6998;53.608;9.958;2022-12-24T14:41:34;8.30;99.90
13856;DHT22;6998;53.608;9.958;2022-12-24T14:44:12;8.20;99.90
13856;DHT22;6998;53.608;9.958;2022-12-24T14:46:43;8.20;99.90
13856;DHT22;6998;53.608;9.958;2022-12-24T14:49:22;8.10;99.90
13856;DHT22;6998;53.608;9.958;2022-12-24T14:51:58;8.10;99.90
13856;DHT22;6998;53.608;9.958;2022-12-24T14:54:37;8.00;99.90
13856;DHT22;6998;53.608;9.958;2022-12-24T14:57:23;8.00;99.90
13856;DHT22;6998;53.608;9.958;2022-12-24T14:59:53;7.90;99.90
13856;DHT22;6998;53.608;9.958;2022-12-24T15:02:36;7.80;99.90
13856;DHT22;6998;53.608;9.958;2022-12-24T15:05:07;7.80;99.90
13856;DHT22;6998;53.608;9.958;2022-12-24T15:07:37;7.70;99.90
13856;DHT22;6998;53.608;9.958;2022-12-24T15:10:07;7.60;99.90
13856;DHT22;6998;53.608;9.958;2022-12-24T15:12:43;7.50;99.90
13856;DHT22;6998;53.608;9.958;2022-12-24T15:15:15;7.50;99.90
13856;DHT22;6998;53.608;9.958;2022-12-24T15:17:43;7.40;99.90
13856;DHT22;6998;53.608;9.958;2022-12-24T15:20:13;7.30;99.90
13856;DHT22;6998;53.608;9.958;2022-12-24T15:22:42;7.40;99.90
13856;DHT22;6998;53.608;9.958;2022-12-24T15:25:18;7.40;99.90
13856;DHT22;6998;53.608;9.958;2022-12-24T15:27:45;7.50;99.90
13856;DHT22;6998;53.608;9.958;2022-12-24T15:30:17;7.40;99.90
13856;DHT22;6998;53.608;9.958;2022-12-24T15:32:44;7.50;99.90
13856;DHT22;6998;53.608;9.958;2022-12-24T15:35:43;7.60;99.90
13856;DHT22;6998;53.608;9.958;2022-12-24T15:38:25;7.60;99.90
13856;DHT22;6998;53.608;9.958;2022-12-24T15:40:54;7.60;99.90
13856;DHT22;6998;53.608;9.958;2022-12-24T15:43:22;7.60;99.90
13856;DHT22;6998;53.608;9.958;2022-12-24T15:45:51;7.60;99.90
13856;DHT22;6998;53.608;9.958;2022-12-24T15:48:21;7.60;99.90
13856;DHT22;6998;53.608;9.958;2022-12-24T15:50:51;7.60;99.90
13856;DHT22;6998;53.608;9.958;2022-12-24T15:53:23;7.60;99.90
13856;DHT22;6998;53.608;9.958;2022-12-24T15:56:06;7.70;99.90
13856;DHT22;6998;53.608;9.958;2022-12-24T15:58:35;7.70;99.90
13856;DHT22;6998;53.608;9.958;2022-12-24T16:01:26;7.90;99.90
13856;DHT22;6998;53.608;9.958;2022-12-24T16:03:55;7.90;99.90
13856;DHT22;6998;53.608;9.958;2022-12-24T16:06:23;8.00;99.90
13856;DHT22;6998;53.608;9.958;2022-12-24T16:08:50;8.00;99.90
13856;DHT22;6998;53.608;9.958;2022-12-24T16:11:18;8.00;99.90
13856;DHT22;6998;53.608;9.958;2022-12-24T16:14:10;8.10;99.90
13856;DHT22;6998;53.608;9.958;2022-12-24T16:16:42;8.10;99.90
13856;DHT22;6998;53.608;9.958;2022-12-24T16:19:16;8.20;99.90
13856;DHT22;6998;53.608;9.958;2022-12-24T16:21:43;8.20;99.90
13856;DHT22;6998;53.608;9.958;2022-12-24T16:24:15;8.20;99.90
13856;DHT22;6998;53.608;9.958;2022-12-24T16:26:43;8.20;99.90
13856;DHT22;6998;53.608;9.958;2022-12-24T16:29:11;8.20;99.90